Time;durP1;ratioP1;P1;durP2;ratioP2;P2;SDS_P1;SDS_P2;PMS_P1;PMS_P2;Temp;Humidity;BMP_temperature;BMP_pressure;BME280_temperature;BME280_humidity;BME280_pressure;Samples;Min_cycle;Max_cycle;Signal;HPM_P1;HPM_P2
2022/04/19 00:00:27;;;;;;;7.78;6.33;;;;;;;2.72;60.96;96025.45;1654676;87;21081;-82
2022/04/19 00:02:55;;;;;;;8.63;6.15;;;;;;;2.70;60.88;96027.35;1630492;88;21061;-82
2022/04/19 00:05:20;;;;;;;8.85;5.97;;;;;;;2.67;60.12;96026.36;1655103;87;21105;-82
2022/04/19 00:07:47;;;;;;;10.53;6.83;;;;;;;2.66;60.19;96024.74;1605199;88;21426;-82
2022/04/19 00:10:13;;;;;;;9.88;6.53;;;;;;;2.63;60.67;96020.70;1603834;89;20972;-82
2022/04/19 00:12:39;;;;;;;11.25;7.40;;;;;;;2.61;60.29;96017.95;1655322;87;21071;-81
2022/04/19 00:15:05;;;;;;;10.88;7.37;;;;;;;2.60;60.82;96016.31;1630295;88;21052;-82
2022/04/19 00:17:32;;;;;;;10.70;7.58;;;;;;;2.58;60.68;96009.23;1655232;87;21086;-82
2022/04/19 00:19:58;;;;;;;13.00;9.05;;;;;;;2.58;60.72;96017.73;1630304;88;20961;-81
2022/04/19 00:22:23;;;;;;;12.82;8.33;;;;;;;2.58;60.70;96006.20;1644582;85;21389;-79
2022/04/19 00:24:50;;;;;;;14.50;9.93;;;;;;;2.58;61.23;96006.20;1627932;88;21512;-79
2022/04/19 00:27:16;;;;;;;13.83;9.68;;;;;;;2.57;61.42;96008.43;1627984;88;21014;-79
2022/04/19 00:29:42;;;;;;;15.95;11.55;;;;;;;2.59;61.37;96003.96;1627485;87;20971;-79
2022/04/19 00:32:11;;;;;;;16.20;10.78;;;;;;;2.61;62.14;96002.56;1638467;86;21006;-79
2022/04/19 00:34:38;;;;;;;15.72;10.13;;;;;;;2.62;62.34;95994.73;1645006;86;20998;-79
2022/04/19 00:37:06;;;;;;;13.60;10.32;;;;;;;2.67;62.34;95993.01;1642145;87;21073;-78
2022/04/19 00:39:31;;;;;;;14.03;10.98;;;;;;;2.70;62.32;95993.52;1617333;89;21026;-79
2022/04/19 00:41:57;;;;;;;14.68;9.53;;;;;;;2.74;62.97;95988.11;1617303;89;21477;-79
2022/04/19 00:44:23;;;;;;;15.43;10.08;;;;;;;2.76;62.94;95990.86;1617279;89;21082;-79
2022/04/19 00:46:50;;;;;;;13.90;9.23;;;;;;;2.82;62.45;95989.50;1617330;89;21031;-79
2022/04/19 00:49:17;;;;;;;16.23;9.35;;;;;;;2.84;62.15;95989.68;1635722;87;21060;-79
2022/04/19 00:51:44;;;;;;;12.95;8.10;;;;;;;2.90;62.01;95992.14;1644962;87;21043;-79
2022/04/19 00:54:11;;;;;;;11.75;8.60;;;;;;;2.94;61.88;95984.50;1644781;86;21378;-79
2022/04/19 00:56:37;;;;;;;10.48;7.45;;;;;;;2.97;62.12;95983.73;1641593;87;20990;-79
2022/04/19 00:59:03;;;;;;;13.53;8.05;;;;;;;2.99;61.74;95975.41;1624388;87;21357;-79
2022/04/19 01:01:29;;;;;;;14.30;9.43;;;;;;;3.04;62.30;95980.10;1639793;87;21006;-79
2022/04/19 01:03:57;;;;;;;15.68;8.65;;;;;;;3.06;62.14;95974.82;1618609;88;20988;-79
2022/04/19 01:06:23;;;;;;;15.45;9.98;;;;;;;3.08;62.70;95971.63;1618444;89;21063;-79
2022/04/19 01:08:48;;;;;;;12.75;9.25;;;;;;;3.11;62.44;95967.52;1618550;88;21073;-79
2022/04/19 01:14:02;;;;;;;14.93;11.10;;;;;;;3.16;62.48;95961.45;1617533;89;21129;-79
2022/04/19 01:16:26;;;;;;;14.47;10.90;;;;;;;3.20;62.68;95965.34;1617285;88;21428;-79
2022/04/19 01:18:53;;;;;;;12.93;10.00;;;;;;;3.21;63.09;95966.47;1617404;89;21040;-79
2022/04/19 01:21:19;;;;;;;14.87;10.43;;;;;;;3.25;63.01;95963.13;1597471;89;21370;-79
2022/04/19 01:23:45;;;;;;;14.60;10.32;;;;;;;3.27;62.46;95965.10;1617337;87;21045;-79
2022/04/19 01:26:11;;;;;;;14.07;10.80;;;;;;;3.28;62.48;95959.01;1617069;87;20975;-79
2022/04/19 01:28:36;;;;;;;14.70;10.13;;;;;;;3.31;62.69;95962.56;1617408;89;21019;-79
2022/04/19 01:31:03;;;;;;;14.63;10.18;;;;;;;3.33;62.57;95959.37;1622139;87;21009;-79
2022/04/19 01:33:29;;;;;;;14.13;10.15;;;;;;;3.36;62.35;95959.55;1645072;86;21058;-79
2022/04/19 01:35:54;;;;;;;14.98;10.38;;;;;;;3.39;62.42;95959.25;1644929;87;21045;-79
2022/04/19 01:38:20;;;;;;;13.65;9.80;;;;;;;3.41;62.09;95966.32;1630041;87;21010;-79
2022/04/19 01:40:46;;;;;;;13.13;9.60;;;;;;;3.41;62.09;95958.62;1617339;89;21362;-79
2022/04/19 01:43:11;;;;;;;14.73;9.63;;;;;;;3.42;62.35;95961.55;1617304;89;21022;-79
2022/04/19 01:45:38;;;;;;;13.55;9.50;;;;;;;3.44;61.81;95959.63;1616962;87;21031;-79
2022/04/19 01:48:06;;;;;;;16.30;10.45;;;;;;;3.44;62.25;95960.44;1617363;89;21397;-79
2022/04/19 01:50:32;;;;;;;13.35;10.28;;;;;;;3.45;62.65;95958.20;1617073;87;21034;-79
2022/04/19 01:53:02;;;;;;;16.37;9.95;;;;;;;3.46;62.97;95958.52;1617228;89;21018;-79
2022/04/19 01:55:27;;;;;;;13.40;9.43;;;;;;;3.47;62.73;95959.33;1617142;89;20999;-79
2022/04/19 01:57:58;;;;;;;14.28;8.73;;;;;;;3.47;62.50;95955.00;1617291;89;21043;-79
2022/04/19 02:00:30;;;;;;;15.98;10.65;;;;;;;3.47;61.50;95948.58;1617112;87;22043;-79
2022/04/19 02:02:57;;;;;;;13.10;9.55;;;;;;;3.47;61.59;95937.50;1617339;89;20975;-79
2022/04/19 02:05:23;;;;;;;14.07;10.60;;;;;;;3.47;61.44;95939.59;1617061;89;21045;-78
2022/04/19 02:07:49;;;;;;;15.25;11.15;;;;;;;3.48;61.26;95932.21;1616734;87;21042;-79
2022/04/19 02:10:16;;;;;;;15.95;10.88;;;;;;;3.50;61.21;95932.86;1617284;89;21081;-79
2022/04/19 02:12:42;;;;;;;13.58;10.05;;;;;;;3.53;62.00;95926.14;1617140;89;21026;-79
2022/04/19 02:15:09;;;;;;;13.38;9.58;;;;;;;3.55;62.63;95929.36;1617021;87;21094;-79
2022/04/19 02:17:45;;;;;;;12.47;9.15;;;;;;;3.56;62.27;95925.03;1617118;89;21015;-79
2022/04/19 02:20:13;;;;;;;9.95;7.87;;;;;;;3.57;62.34;95915.08;1642311;87;21425;-79
2022/04/19 02:22:39;;;;;;;8.43;6.28;;;;;;;3.58;62.34;95914.95;1644906;87;21380;-79
2022/04/19 02:25:06;;;;;;;7.30;4.75;;;;;;;3.61;59.64;95916.42;1644584;86;21027;-79
2022/04/19 02:27:33;;;;;;;7.10;4.80;;;;;;;3.69;58.94;95908.75;1644780;87;20994;-79
2022/04/19 02:30:04;;;;;;;7.60;5.58;;;;;;;3.76;58.83;95907.20;1644837;87;21022;-79
2022/04/19 02:32:31;;;;;;;10.95;6.97;;;;;;;3.80;59.50;95904.66;1644949;86;21138;-79
2022/04/19 02:34:57;;;;;;;9.33;6.45;;;;;;;3.81;61.46;95901.61;1640421;87;21059;-79
2022/04/19 02:37:23;;;;;;;9.38;5.45;;;;;;;3.82;61.60;95905.30;1617007;89;21085;-79
2022/04/19 02:39:50;;;;;;;6.58;5.03;;;;;;;3.80;61.05;95902.09;1597320;87;21009;-79
2022/04/19 02:42:16;;;;;;;6.35;5.00;;;;;;;3.80;60.79;95908.52;1618769;87;21396;-79
2022/04/19 02:44:42;;;;;;;7.75;5.20;;;;;;;3.80;61.24;95903.38;1618614;88;21091;-79
2022/04/19 02:47:07;;;;;;;8.80;5.17;;;;;;;3.79;61.55;95904.81;1618584;88;21047;-79
2022/04/19 02:49:34;;;;;;;12.78;9.18;;;;;;;3.78;61.84;95909.14;1618779;88;21093;-79
2022/04/19 02:52:00;;;;;;;14.35;8.98;;;;;;;3.76;60.77;95909.78;1618545;87;21063;-79
2022/04/19 02:54:26;;;;;;;15.50;9.68;;;;;;;3.75;60.54;95913.78;1618702;88;21052;-79
2022/04/19 02:56:52;;;;;;;7.17;5.33;;;;;;;3.71;60.34;95910.69;1618598;88;21398;-79
2022/04/19 02:59:17;;;;;;;7.25;5.50;;;;;;;3.71;61.58;95916.30;1618741;88;21115;-79
2022/04/19 03:01:43;;;;;;;10.98;7.83;;;;;;;3.69;62.64;95926.73;1618673;88;21068;-79
2022/04/19 03:04:09;;;;;;;14.85;10.08;;;;;;;3.64;61.95;95934.09;1618726;88;21064;-79
2022/04/19 03:06:35;;;;;;;14.83;10.80;;;;;;;3.55;61.94;95931.92;1618547;87;21429;-79
2022/04/19 03:09:02;;;;;;;20.90;13.35;;;;;;;3.54;61.65;95935.45;1620502;87;21072;-79
2022/04/19 03:11:28;;;;;;;19.98;13.08;;;;;;;3.50;61.52;95927.73;1618794;88;21004;-79
2022/04/19 03:13:55;;;;;;;18.98;13.13;;;;;;;3.46;61.58;95928.18;1620539;87;20996;-79
2022/04/19 03:16:21;;;;;;;19.15;11.75;;;;;;;3.45;61.50;95922.23;1618577;88;21462;-79
2022/04/19 03:18:47;;;;;;;18.90;13.00;;;;;;;3.45;61.79;95922.72;1618652;87;21041;-79
2022/04/19 03:21:13;;;;;;;17.45;13.10;;;;;;;3.42;62.01;95927.68;1618687;88;20973;-79
2022/04/19 03:29:09;;;;;;;18.62;12.53;;;;;;;3.31;61.92;95928.70;1644935;87;20999;-79
2022/04/19 03:31:34;;;;;;;15.23;11.03;;;;;;;3.30;62.04;95926.28;1644903;87;21046;-79
2022/04/19 03:34:04;;;;;;;17.77;11.70;;;;;;;3.29;62.51;95929.80;1668213;86;21034;-79
2022/04/19 03:36:30;;;;;;;17.17;10.88;;;;;;;3.22;63.27;95930.05;1668804;86;21138;-79
2022/04/19 03:38:56;;;;;;;14.75;10.28;;;;;;;3.18;63.35;95927.45;1644348;86;21386;-79
2022/04/19 03:41:21;;;;;;;13.22;9.18;;;;;;;3.15;63.34;95923.42;1623524;88;20994;-79
2022/04/19 03:43:48;;;;;;;12.13;8.83;;;;;;;3.13;63.14;95915.55;1623373;88;21038;-78
2022/04/19 03:46:14;;;;;;;12.28;9.25;;;;;;;3.08;62.58;95918.53;1625654;87;21398;-79
2022/04/19 03:48:40;;;;;;;12.03;8.08;;;;;;;3.07;63.26;95913.06;1641684;87;20978;-79
2022/04/19 03:51:06;;;;;;;9.18;6.85;;;;;;;3.05;63.37;95909.04;1624024;88;20941;-79
2022/04/19 03:53:32;;;;;;;11.38;6.60;;;;;;;2.99;63.65;95900.98;1641944;87;21000;-79
2022/04/19 03:55:58;;;;;;;9.85;6.95;;;;;;;2.98;63.84;95898.09;1623287;87;21397;-79
2022/04/19 03:58:26;;;;;;;9.15;6.75;;;;;;;2.96;63.30;95900.00;1614191;89;21015;-79
2022/04/19 04:00:54;;;;;;;8.83;6.78;;;;;;;2.95;62.24;95891.97;1615011;87;20986;-79
2022/04/19 04:03:21;;;;;;;11.20;6.92;;;;;;;2.97;63.04;95893.10;1616243;87;21138;-79
2022/04/19 04:05:47;;;;;;;10.43;6.53;;;;;;;2.97;63.20;95893.91;1641974;87;21413;-79
2022/04/19 04:08:13;;;;;;;11.48;7.55;;;;;;;2.98;63.42;95890.39;1621477;87;21161;-79
2022/04/19 04:10:39;;;;;;;14.33;8.08;;;;;;;2.98;62.84;95890.39;1615411;87;21129;-79
2022/04/19 04:13:05;;;;;;;10.75;7.72;;;;;;;3.00;62.55;95889.77;1615803;89;21460;-79
2022/04/19 04:15:31;;;;;;;9.60;6.45;;;;;;;3.02;62.87;95883.19;1626801;87;21066;-79
2022/04/19 04:17:57;;;;;;;10.95;7.17;;;;;;;3.04;63.07;95886.41;1624024;88;21088;-79
2022/04/19 04:20:23;;;;;;;9.53;7.80;;;;;;;3.04;62.61;95887.70;1642024;87;21074;-79
2022/04/19 04:22:48;;;;;;;10.53;7.35;;;;;;;3.06;61.25;95890.11;1623873;87;21396;-79
2022/04/19 04:25:14;;;;;;;14.18;8.90;;;;;;;3.12;61.38;95891.63;1641351;87;21365;-79
2022/04/19 04:27:40;;;;;;;10.93;8.13;;;;;;;3.16;62.35;95893.42;1641829;87;21143;-79
2022/04/19 04:30:06;;;;;;;9.68;7.45;;;;;;;3.20;63.36;95887.84;1640933;87;21129;-79
2022/04/19 04:32:33;;;;;;;11.73;8.33;;;;;;;3.23;62.09;95885.45;1637085;86;21079;-78
2022/04/19 04:34:59;;;;;;;15.18;9.50;;;;;;;3.27;61.51;95892.73;1643637;87;21023;-79
2022/04/19 04:37:25;;;;;;;30.27;19.48;;;;;;;3.34;61.29;95897.26;1643832;87;21438;-79
2022/04/19 04:39:51;;;;;;;20.37;14.33;;;;;;;3.40;60.66;95902.59;1643317;87;21127;-79
2022/04/19 04:42:16;;;;;;;16.75;10.72;;;;;;;3.49;60.52;95903.00;1643697;87;20992;-79
2022/04/19 04:44:42;;;;;;;11.00;7.75;;;;;;;3.55;61.23;95906.72;1643821;87;21418;-79
2022/04/19 04:49:54;;;;;;;17.12;9.98;;;;;;;3.67;61.38;95903.44;1643778;87;21105;-79
2022/04/19 04:52:21;;;;;;;17.75;13.03;;;;;;;3.72;61.28;95907.64;1643826;87;21407;-79
2022/04/19 04:54:46;;;;;;;30.35;17.15;;;;;;;3.76;62.16;95912.83;1644215;87;21384;-79
2022/04/19 04:57:12;;;;;;;42.73;22.70;;;;;;;3.79;62.38;95909.95;1643896;87;21000;-79
2022/04/19 04:59:38;;;;;;;40.78;26.40;;;;;;;3.81;62.68;95914.45;1643646;87;20992;-79
2022/04/19 05:02:04;;;;;;;32.85;23.35;;;;;;;3.86;62.63;95913.52;1638666;87;21054;-79
2022/04/19 05:04:30;;;;;;;26.23;17.23;;;;;;;3.86;62.69;95908.37;1627802;87;21101;-79
2022/04/19 05:06:55;;;;;;;20.00;14.50;;;;;;;3.90;62.62;95907.11;1627747;87;21105;-79
2022/04/19 05:09:21;;;;;;;17.45;13.58;;;;;;;3.95;62.88;95915.19;1629985;87;21361;-79
2022/04/19 05:11:50;;;;;;;19.55;13.22;;;;;;;3.99;62.76;95912.63;1628527;87;21416;-79
2022/04/19 05:14:14;;;;;;;19.95;15.00;;;;;;;4.04;62.06;95907.83;1627894;87;21026;-79
2022/04/19 05:16:41;;;;;;;15.95;14.25;;;;;;;4.09;61.29;95909.48;1635077;87;21366;-79
2022/04/19 05:19:08;;;;;;;16.15;13.18;;;;;;;4.16;61.22;95909.19;1646477;87;21062;-79
2022/04/19 05:21:37;;;;;;;25.57;15.78;;;;;;;4.24;60.72;95908.44;1654452;87;21009;-79
2022/04/19 05:24:01;;;;;;;24.67;13.18;;;;;;;4.34;60.98;95912.16;1629875;86;21002;-79
2022/04/19 05:26:28;;;;;;;12.88;9.90;;;;;;;4.46;61.25;95913.50;1626821;88;21078;-79
2022/04/19 05:28:54;;;;;;;14.20;10.28;;;;;;;4.57;61.31;95908.56;1637106;87;21033;-79
2022/04/19 05:31:21;;;;;;;14.28;11.08;;;;;;;4.63;61.11;95906.64;1653757;87;21037;-79
2022/04/19 05:33:46;;;;;;;13.80;10.85;;;;;;;4.71;60.64;95902.79;1653728;87;21017;-79
2022/04/19 05:36:12;;;;;;;15.15;11.50;;;;;;;4.81;60.81;95907.33;1644079;87;21031;-79
2022/04/19 05:38:38;;;;;;;14.65;10.75;;;;;;;4.90;60.16;95909.45;1643387;87;21430;-79
2022/04/19 05:41:04;;;;;;;12.47;10.75;;;;;;;4.97;60.53;95906.08;1643627;87;21382;-79
2022/04/19 05:43:30;;;;;;;13.25;10.55;;;;;;;5.05;60.29;95909.16;1643499;87;21075;-79
2022/04/19 05:45:58;;;;;;;9.48;7.67;;;;;;;5.12;59.86;95906.27;1652814;87;21086;-79
2022/04/19 05:48:27;;;;;;;11.90;7.78;;;;;;;5.20;59.83;95911.41;1619483;88;21018;-80
2022/04/19 05:50:53;;;;;;;10.98;7.50;;;;;;;5.12;60.35;95883.09;1593319;88;21011;-80
2022/04/19 05:53:19;;;;;;;7.60;5.83;;;;;;;5.43;60.18;95905.16;1654323;87;21432;-80
2022/04/19 05:55:45;;;;;;;7.28;5.47;;;;;;;5.54;58.91;95904.84;1653691;87;21009;-80
2022/04/19 05:58:11;;;;;;;7.37;5.55;;;;;;;5.57;58.64;95893.41;1643551;87;20975;-80
2022/04/19 06:00:36;;;;;;;7.60;5.15;;;;;;;5.57;58.29;95892.11;1644165;85;21400;-80
2022/04/19 06:05:46;;;;;;;7.78;5.40;;;;;;;5.69;58.36;95894.20;1654346;87;21074;-80
2022/04/19 06:08:12;;;;;;;6.95;5.05;;;;;;;5.79;58.85;95888.05;1654259;87;21010;-80
2022/04/19 06:10:38;;;;;;;7.60;5.22;;;;;;;5.83;57.85;95892.70;1619955;88;20968;-80
2022/04/19 06:13:03;;;;;;;8.48;5.75;;;;;;;5.75;57.49;95891.93;1626546;87;21341;-80
2022/04/19 06:15:31;;;;;;;8.50;5.90;;;;;;;5.70;57.63;95893.72;1626472;87;20998;-80
2022/04/19 06:17:56;;;;;;;7.47;6.58;;;;;;;5.78;57.45;95885.95;1631422;87;20998;-80
2022/04/19 06:20:22;;;;;;;9.90;7.22;;;;;;;5.84;57.02;95894.31;1643596;87;21003;-80
2022/04/19 06:22:48;;;;;;;11.50;8.53;;;;;;;5.87;57.45;95894.01;1643575;87;21469;-80
2022/04/19 06:25:14;;;;;;;9.03;5.92;;;;;;;5.93;58.05;95889.50;1643911;87;21068;-80
2022/04/19 06:27:42;;;;;;;9.33;5.85;;;;;;;5.96;57.03;95891.75;1650619;87;21042;-81
2022/04/19 06:30:09;;;;;;;7.53;4.80;;;;;;;6.03;56.77;95892.40;1657325;85;21070;-80
2022/04/19 06:32:35;;;;;;;6.62;4.95;;;;;;;6.08;57.08;95896.08;1626855;87;20987;-80
2022/04/19 06:35:01;;;;;;;6.70;4.35;;;;;;;6.05;56.70;95892.55;1636526;87;20999;-81
2022/04/19 06:37:26;;;;;;;5.40;4.25;;;;;;;6.08;57.06;95891.41;1630085;87;21422;-80
2022/04/19 06:39:52;;;;;;;5.90;5.25;;;;;;;6.20;56.60;95893.47;1629775;87;20975;-81
2022/04/19 06:42:19;;;;;;;7.58;5.58;;;;;;;6.30;56.77;95894.06;1642049;87;21310;-80
2022/04/19 06:44:44;;;;;;;6.40;5.67;;;;;;;6.40;56.51;95895.66;1638532;87;21193;-81
2022/04/19 06:47:10;;;;;;;7.42;5.92;;;;;;;6.50;56.28;95888.50;1631218;87;21393;-81
2022/04/19 06:49:38;;;;;;;10.08;7.72;;;;;;;6.56;56.99;95884.77;1627678;87;20995;-81
2022/04/19 06:52:06;;;;;;;11.95;7.12;;;;;;;6.62;54.72;95883.28;1618115;87;21358;-80
2022/04/19 06:54:33;;;;;;;10.25;6.90;;;;;;;6.65;55.14;95885.52;1617927;87;20992;-81
2022/04/19 06:56:59;;;;;;;10.30;7.40;;;;;;;6.71;55.65;95884.06;1618708;87;21003;-80
2022/04/19 06:59:25;;;;;;;10.35;6.50;;;;;;;6.77;54.88;95886.76;1617717;87;20951;-80
2022/04/19 07:01:52;;;;;;;10.78;6.45;;;;;;;6.70;55.29;95891.48;1621313;87;20998;-80
2022/04/19 07:04:19;;;;;;;11.22;6.75;;;;;;;6.59;54.27;95894.75;1621219;87;21019;-80
2022/04/19 07:06:45;;;;;;;9.68;7.45;;;;;;;6.44;55.42;95891.27;1617510;87;21011;-81
2022/04/19 07:09:12;;;;;;;9.68;7.45;;;;;;;6.35;55.18;95896.65;1617853;87;20992;-80
2022/04/19 07:11:38;;;;;;;9.70;7.92;;;;;;;6.19;55.63;95894.45;1642067;87;20991;-80
2022/04/19 07:14:04;;;;;;;11.33;7.15;;;;;;;6.13;55.96;95895.58;1627419;87;20995;-81
2022/04/19 07:16:30;;;;;;;10.03;7.37;;;;;;;6.09;55.67;95898.17;1634375;87;21014;-80
2022/04/19 07:18:57;;;;;;;11.03;7.30;;;;;;;6.23;56.13;95898.78;1635791;87;21035;-80
2022/04/19 07:26:52;;;;;;;9.53;6.78;;;;;;;6.75;56.77;95896.94;1621667;87;21082;-80
2022/04/19 07:29:18;;;;;;;10.98;8.08;;;;;;;6.89;56.90;95894.44;1629929;87;21026;-80
2022/04/19 07:31:48;;;;;;;7.95;6.55;;;;;;;6.98;55.95;95891.31;1625372;87;21401;-80
2022/04/19 07:34:14;;;;;;;10.72;6.95;;;;;;;7.15;55.90;95902.34;1642457;87;21022;-80
2022/04/19 07:36:40;;;;;;;10.93;7.92;;;;;;;7.16;55.31;95904.78;1651606;87;21041;-82
2022/04/19 07:39:10;;;;;;;10.85;8.08;;;;;;;7.21;55.20;95904.25;1644889;87;21174;-82
2022/04/19 07:41:37;;;;;;;15.03;10.03;;;;;;;7.29;55.02;95905.47;1621138;88;20962;-82
2022/04/19 07:44:04;;;;;;;13.98;10.03;;;;;;;7.37;54.80;95900.75;1629410;88;20989;-82
2022/04/19 07:46:31;;;;;;;12.25;8.68;;;;;;;7.33;54.30;95902.08;1627477;88;21434;-82
2022/04/19 07:48:57;;;;;;;13.00;8.83;;;;;;;7.39;54.01;95906.55;1584842;90;21050;-82
2022/04/19 07:51:23;;;;;;;12.43;8.85;;;;;;;7.32;53.16;95908.20;1618993;89;21017;-82
2022/04/19 07:53:49;;;;;;;11.70;8.98;;;;;;;7.27;54.01;95909.21;1621787;87;22056;-82
2022/04/19 07:56:16;;;;;;;11.08;9.05;;;;;;;7.32;53.66;95913.37;1626534;88;20969;-82
2022/04/19 07:58:47;;;;;;;12.35;9.35;;;;;;;7.37;53.97;95911.09;1649665;87;21043;-82
2022/04/19 08:01:14;;;;;;;10.98;7.95;;;;;;;7.48;54.37;95905.03;1643995;87;21066;-83
2022/04/19 08:03:40;;;;;;;14.10;10.85;;;;;;;7.55;53.66;95909.00;1646517;87;21018;-82
2022/04/19 08:06:06;;;;;;;12.40;10.03;;;;;;;7.51;53.53;95901.28;1628270;87;21011;-82
2022/04/19 08:08:32;;;;;;;15.55;11.38;;;;;;;7.60;54.47;95902.01;1650672;87;21054;-82
2022/04/19 08:10:58;;;;;;;12.25;10.55;;;;;;;7.76;53.25;95900.58;1650578;87;21353;-82
2022/04/19 08:13:24;;;;;;;11.57;9.78;;;;;;;7.76;53.25;95900.58;1650734;87;20994;-83
2022/04/19 08:15:50;;;;;;;12.20;10.48;;;;;;;7.92;53.04;95907.37;1651030;87;21544;-82
2022/04/19 08:18:16;;;;;;;12.88;11.18;;;;;;;7.99;51.35;95903.13;1650958;87;21027;-82
2022/04/19 08:20:42;;;;;;;13.78;11.78;;;;;;;8.09;52.66;95901.06;1651105;87;21011;-82
2022/04/19 08:23:11;;;;;;;13.13;11.65;;;;;;;8.23;51.56;95907.23;1650382;87;21117;-82
2022/04/19 08:25:38;;;;;;;11.15;9.55;;;;;;;8.08;52.33;95906.73;1655312;86;21066;-83
2022/04/19 08:28:05;;;;;;;11.88;9.25;;;;;;;8.00;52.08;95907.31;1655479;87;20986;-83
2022/04/19 08:30:30;;;;;;;10.75;9.23;;;;;;;8.09;52.38;95901.86;1655423;87;21050;-82
2022/04/19 08:32:57;;;;;;;9.95;8.95;;;;;;;8.24;51.65;95903.66;1650221;87;21401;-82
2022/04/19 08:35:23;;;;;;;11.20;9.40;;;;;;;8.22;51.64;95905.13;1649871;87;21144;-82
2022/04/19 08:37:49;;;;;;;10.53;9.43;;;;;;;8.16;50.84;95907.64;1649715;87;21114;-82
2022/04/19 08:40:16;;;;;;;10.82;9.73;;;;;;;8.18;51.18;95903.09;1625598;87;21030;-82
2022/04/19 08:42:43;;;;;;;11.80;10.32;;;;;;;8.29;51.29;95903.42;1649951;87;21011;-82
2022/04/19 08:45:14;;;;;;;10.32;9.28;;;;;;;8.39;51.58;95905.78;1649983;87;21488;-82
2022/04/19 08:47:43;;;;;;;10.32;9.20;;;;;;;8.65;51.17;95906.13;1649806;87;21014;-82
2022/04/19 08:50:12;;;;;;;9.95;8.43;;;;;;;8.62;51.23;95909.08;1649996;87;21074;-82
2022/04/19 08:52:37;;;;;;;13.00;8.53;;;;;;;8.61;51.33;95917.01;1649997;87;21034;-82
2022/04/19 08:57:51;;;;;;;10.00;8.45;;;;;;;8.53;51.98;95906.77;1649800;87;21031;-82
2022/04/19 09:00:22;;;;;;;10.63;9.13;;;;;;;8.54;53.44;95913.55;1649880;87;20982;-83
2022/04/19 09:02:46;;;;;;;10.93;9.25;;;;;;;8.34;52.12;95917.98;1649495;86;20995;-82
2022/04/19 09:05:26;;;;;;;10.72;9.18;;;;;;;8.09;53.00;95920.47;1649984;87;20955;-82
2022/04/19 09:07:53;;;;;;;9.75;8.75;;;;;;;7.88;52.75;95919.06;1649801;87;21063;-82
2022/04/19 09:10:31;;;;;;;10.45;8.63;;;;;;;7.70;53.74;95923.27;1649946;87;21433;-82
2022/04/19 09:13:06;;;;;;;12.15;9.83;;;;;;;7.61;54.54;95923.00;1649819;87;21066;-82
2022/04/19 09:15:44;;;;;;;10.90;9.80;;;;;;;7.57;54.08;95925.63;1647473;86;21364;-82
2022/04/19 09:18:29;;;;;;;11.15;9.73;;;;;;;7.47;54.89;95925.86;1649977;87;21400;-83
2022/04/19 09:20:53;;;;;;;10.20;9.20;;;;;;;7.36;55.19;95928.38;1649604;86;20994;-82
2022/04/19 09:23:20;;;;;;;10.40;9.13;;;;;;;7.27;56.02;95934.56;1649949;87;21624;-82
2022/04/19 09:25:46;;;;;;;11.88;9.53;;;;;;;7.21;55.35;95937.84;1649916;87;21066;-82
2022/04/19 09:28:20;;;;;;;10.75;9.65;;;;;;;7.14;55.31;95941.58;1649876;87;21333;-82
2022/04/19 09:30:51;;;;;;;11.10;9.93;;;;;;;7.08;55.25;95938.89;1649870;87;21039;-82
2022/04/19 09:33:19;;;;;;;12.85;11.57;;;;;;;7.01;55.80;95939.27;1655268;87;20954;-82
2022/04/19 09:35:58;;;;;;;11.00;9.80;;;;;;;6.99;56.28;95941.99;1653176;87;21062;-82
2022/04/19 09:38:44;;;;;;;15.25;11.28;;;;;;;7.00;56.03;95941.05;1669877;86;21082;-82
2022/04/19 09:41:13;;;;;;;11.12;9.90;;;;;;;6.99;56.43;95941.19;1669836;86;22011;-82
2022/04/19 09:43:39;;;;;;;9.90;8.90;;;;;;;6.98;56.12;95940.88;1669902;86;21397;-82
2022/04/19 09:46:05;;;;;;;12.10;10.60;;;;;;;6.92;55.63;95955.28;1670032;86;21031;-82
2022/04/19 09:48:41;;;;;;;12.70;11.03;;;;;;;6.82;56.31;95952.09;1669819;86;21022;-82
2022/04/19 09:51:13;;;;;;;14.30;10.25;;;;;;;6.89;56.58;95942.70;1670046;86;20959;-82
2022/04/19 09:53:48;;;;;;;12.47;9.55;;;;;;;7.00;57.31;95942.83;1669737;86;21448;-82
2022/04/19 09:56:16;;;;;;;11.53;10.32;;;;;;;7.06;56.91;95941.64;1669976;86;21022;-82
2022/04/19 09:58:46;;;;;;;12.43;11.18;;;;;;;7.06;58.06;95949.40;1669733;84;21043;-82
2022/04/19 10:09:34;;;;;;;10.08;9.10;;;;;;;6.93;59.12;95949.94;1641486;87;21041;-82
2022/04/19 10:12:05;;;;;;;10.80;9.70;;;;;;;7.00;58.08;95947.99;1637959;87;21450;-82
2022/04/19 10:14:31;;;;;;;10.82;9.73;;;;;;;7.04;58.52;95955.71;1647132;87;21026;-82
2022/04/19 10:16:58;;;;;;;11.53;10.20;;;;;;;7.27;58.98;95953.95;1641781;87;21088;-82
2022/04/19 10:19:23;;;;;;;10.50;9.38;;;;;;;7.53;57.49;95959.59;1638429;87;21331;-82
2022/04/19 10:21:49;;;;;;;10.00;9.00;;;;;;;7.75;56.54;95948.91;1630581;87;21025;-82
2022/04/19 10:24:16;;;;;;;10.60;9.50;;;;;;;7.93;57.21;95947.79;1645809;87;21022;-85
2022/04/19 10:26:48;;;;;;;10.28;9.05;;;;;;;7.98;57.64;95954.55;1643177;87;21018;-82
2022/04/19 10:29:28;;;;;;;10.70;9.43;;;;;;;8.01;58.30;95953.70;1637071;87;21046;-82
2022/04/19 10:32:06;;;;;;;9.85;8.85;;;;;;;7.99;57.51;95952.28;1641514;87;21330;-82
2022/04/19 10:34:34;;;;;;;9.68;8.65;;;;;;;7.96;57.76;95956.48;1641154;87;21058;-82
2022/04/19 10:37:21;;;;;;;10.68;9.58;;;;;;;7.97;58.03;95952.92;1641983;87;21420;-82
2022/04/19 10:39:50;;;;;;;11.38;10.13;;;;;;;8.11;57.72;95952.14;1641436;87;21098;-82
2022/04/19 10:42:36;;;;;;;12.10;10.95;;;;;;;8.35;56.75;95948.55;1635116;87;21068;-83
2022/04/19 10:45:17;;;;;;;12.13;10.98;;;;;;;8.57;59.22;95948.14;1638799;87;21066;-82
2022/04/19 10:47:58;;;;;;;12.53;10.80;;;;;;;8.80;57.21;95947.55;1627945;87;22333;-82
2022/04/19 10:50:30;;;;;;;11.90;10.75;;;;;;;8.82;56.38;95949.47;1643323;87;21110;-82
2022/04/19 10:53:05;;;;;;;13.03;11.73;;;;;;;8.81;56.13;95949.16;1640324;87;21054;-82
2022/04/19 10:55:58;;;;;;;11.57;10.38;;;;;;;8.75;56.13;95952.45;1636129;87;21471;-81
2022/04/19 10:58:44;;;;;;;9.75;8.85;;;;;;;8.76;55.73;95949.37;1632243;87;21050;-82
2022/04/19 11:01:30;;;;;;;11.68;10.58;;;;;;;8.70;53.25;95957.38;1632379;87;21086;-82
2022/04/19 11:03:56;;;;;;;11.45;10.32;;;;;;;8.50;54.65;95956.33;1631601;87;21049;-82
2022/04/19 11:06:38;;;;;;;12.82;11.00;;;;;;;8.43;54.97;95956.22;1637506;87;21123;-82
2022/04/19 11:09:21;;;;;;;11.00;9.90;;;;;;;8.31;55.39;95962.80;1649884;87;21136;-83
2022/04/19 11:11:53;;;;;;;10.38;9.48;;;;;;;8.18;54.63;95964.70;1637411;87;20971;-82
2022/04/19 11:14:35;;;;;;;11.50;10.38;;;;;;;8.16;56.12;95965.38;1645301;87;20950;-84
2022/04/19 11:17:27;;;;;;;13.10;11.68;;;;;;;8.15;56.43;95962.48;1636883;87;21031;-82
2022/04/19 11:20:14;;;;;;;11.60;10.47;;;;;;;8.16;56.12;95964.58;1607658;88;21002;-82
2022/04/19 11:22:54;;;;;;;12.93;11.40;;;;;;;8.15;56.15;95964.27;1589246;88;21522;-82
2022/04/19 11:25:39;;;;;;;14.28;12.88;;;;;;;8.14;55.82;95972.52;1599616;89;21444;-82
2022/04/19 11:28:11;;;;;;;12.10;10.90;;;;;;;8.01;56.51;95975.70;1638790;86;21011;-82
2022/04/19 11:30:43;;;;;;;11.00;9.88;;;;;;;7.83;56.13;95976.50;1635889;87;21018;-82
2022/04/19 11:33:08;;;;;;;11.15;9.98;;;;;;;7.76;56.14;95980.26;1637678;87;21407;-82
2022/04/19 11:35:34;;;;;;;10.78;9.78;;;;;;;7.71;56.42;95983.86;1633608;87;21003;-82
2022/04/19 11:38:05;;;;;;;12.23;11.03;;;;;;;7.65;56.96;95987.64;1611461;88;21399;-82
2022/04/19 11:48:50;;;;;;;9.28;8.13;;;;;;;7.50;57.32;95986.28;1624971;87;21104;-81
2022/04/19 11:51:20;;;;;;;8.65;7.75;;;;;;;7.37;57.46;95987.34;1619843;87;21095;-81
2022/04/19 11:53:46;;;;;;;8.83;8.03;;;;;;;7.30;57.97;95987.68;1618563;87;21018;-81
2022/04/19 11:56:12;;;;;;;10.38;8.60;;;;;;;7.26;59.13;95986.42;1620934;87;21436;-81
2022/04/19 11:58:41;;;;;;;11.00;8.40;;;;;;;7.19;58.60;95993.58;1620470;87;20959;-81
2022/04/19 12:01:08;;;;;;;10.20;9.18;;;;;;;7.19;58.66;95988.89;1615433;87;21074;-82
2022/04/19 12:03:36;;;;;;;11.35;10.15;;;;;;;7.26;59.35;95985.94;1621778;87;20963;-81
2022/04/19 12:06:11;;;;;;;12.70;9.98;;;;;;;7.43;60.47;95982.77;1622795;87;21055;-82
2022/04/19 12:08:51;;;;;;;10.78;9.15;;;;;;;7.58;61.55;95986.22;1620624;87;21059;-81
2022/04/19 12:11:26;;;;;;;12.15;8.55;;;;;;;7.65;61.23;95989.73;1625537;87;20999;-82
2022/04/19 12:13:52;;;;;;;13.75;10.45;;;;;;;7.82;61.25;95980.88;1624657;86;21012;-81